sensor_id;sensor_type;location;lat;lon;timestamp;pressure;altitude;pressure_sealevel;temperature;humidity
22018;BME280;11173;51.050;7.108;2023-06-22T00:00:18;99698.94;;;20.69;48.16
22018;BME280;11173;51.050;7.108;2023-06-22T00:10:18;99705.00;;;20.62;48.33
22018;BME280;11173;51.050;7.108;2023-06-22T00:20:18;99700.09;;;20.62;47.98
22018;BME280;11173;51.050;7.108;2023-06-22T00:30:19;99707.16;;;20.67;47.80
22018;BME280;11173;51.050;7.108;2023-06-22T00:40:19;99703.84;;;20.69;47.60
22018;BME280;11173;51.050;7.108;2023-06-22T00:50:23;99696.41;;;20.71;47.20
22018;BME280;11173;51.050;7.108;2023-06-22T01:00:24;99705.78;;;20.77;46.90
22018;BME280;11173;51.050;7.108;2023-06-22T01:10:40;99703.25;;;20.79;46.99
22018;BME280;11173;51.050;7.108;2023-06-22T01:20:41;99693.38;;;20.75;46.99
22018;BME280;11173;51.050;7.108;2023-06-22T01:30:43;99686.63;;;20.72;47.38
22018;BME280;11173;51.050;7.108;2023-06-22T01:40:45;99677.19;;;20.60;47.99
22018;BME280;11173;51.050;7.108;2023-06-22T01:50:46;99659.31;;;20.54;48.37
22018;BME280;11173;51.050;7.108;2023-06-22T02:00:55;99649.88;;;20.42;48.56
22018;BME280;11173;51.050;7.108;2023-06-22T02:10:59;99647.75;;;20.37;48.23
22018;BME280;11173;51.050;7.108;2023-06-22T02:21:00;99652.25;;;20.29;48.03
22018;BME280;11173;51.050;7.108;2023-06-22T02:31:01;99653.63;;;20.19;48.38
22018;BME280;11173;51.050;7.108;2023-06-22T02:41:02;99639.28;;;20.08;48.71
22018;BME280;11173;51.050;7.108;2023-06-22T02:51:02;99630.97;;;20.04;49.06
22018;BME280;11173;51.050;7.108;2023-06-22T03:01:03;99619.81;;;20.00;49.07
22018;BME280;11173;51.050;7.108;2023-06-22T03:11:04;99603.84;;;19.97;48.98
22018;BME280;11173;51.050;7.108;2023-06-22T03:21:05;99603.75;;;19.92;49.42
22018;BME280;11173;51.050;7.108;2023-06-22T03:31:05;99598.56;;;19.90;49.53
22018;BME280;11173;51.050;7.108;2023-06-22T03:41:06;99613.41;;;19.85;49.57
22018;BME280;11173;51.050;7.108;2023-06-22T03:51:07;99593.22;;;19.92;49.08
22018;BME280;11173;51.050;7.108;2023-06-22T04:01:07;99595.28;;;20.06;48.89
22018;BME280;11173;51.050;7.108;2023-06-22T04:11:11;99593.34;;;20.13;49.49
22018;BME280;11173;51.050;7.108;2023-06-22T04:21:12;99591.09;;;20.17;50.55
22018;BME280;11173;51.050;7.108;2023-06-22T04:31:13;99590.88;;;20.20;51.14
22018;BME280;11173;51.050;7.108;2023-06-22T04:41:13;99601.34;;;20.29;51.28
22018;BME280;11173;51.050;7.108;2023-06-22T04:51:23;99590.88;;;20.35;51.64
22018;BME280;11173;51.050;7.108;2023-06-22T05:01:30;99587.63;;;20.42;52.23
22018;BME280;11173;51.050;7.108;2023-06-22T05:11:35;99594.03;;;20.58;53.25
22018;BME280;11173;51.050;7.108;2023-06-22T05:21:35;99585.44;;;20.67;54.27
22018;BME280;11173;51.050;7.108;2023-06-22T05:31:36;99576.19;;;20.66;55.46
22018;BME280;11173;51.050;7.108;2023-06-22T05:41:36;99590.81;;;20.65;55.08
22018;BME280;11173;51.050;7.108;2023-06-22T05:51:36;99590.09;;;20.70;54.02
22018;BME280;11173;51.050;7.108;2023-06-22T06:01:37;99601.91;;;20.83;52.82
22018;BME280;11173;51.050;7.108;2023-06-22T06:11:37;99608.78;;;20.97;53.63
22018;BME280;11173;51.050;7.108;2023-06-22T06:21:38;99615.75;;;21.17;53.91
22018;BME280;11173;51.050;7.108;2023-06-22T06:31:38;99614.81;;;21.67;53.89
22018;BME280;11173;51.050;7.108;2023-06-22T06:41:39;99605.59;;;22.61;53.80
22018;BME280;11173;51.050;7.108;2023-06-22T06:51:39;99617.09;;;24.32;50.27
22018;BME280;11173;51.050;7.108;2023-06-22T07:01:39;99605.56;;;25.06;49.13
22018;BME280;11173;51.050;7.108;2023-06-22T07:11:40;99597.69;;;25.82;46.86
22018;BME280;11173;51.050;7.108;2023-06-22T07:21:40;99568.22;;;26.04;46.62
22018;BME280;11173;51.050;7.108;2023-06-22T07:31:40;99568.06;;;25.96;45.91
22018;BME280;11173;51.050;7.108;2023-06-22T07:41:41;99578.16;;;25.97;45.85
22018;BME280;11173;51.050;7.108;2023-06-22T07:51:41;99563.78;;;25.78;46.59
22018;BME280;11173;51.050;7.108;2023-06-22T08:01:42;99542.78;;;25.70;45.94
22018;BME280;11173;51.050;7.108;2023-06-22T08:11:42;99523.84;;;25.31;47.65
22018;BME280;11173;51.050;7.108;2023-06-22T08:21:43;99503.66;;;25.29;48.08
22018;BME280;11173;51.050;7.108;2023-06-22T08:31:43;99499.41;;;25.41;48.11
22018;BME280;11173;51.050;7.108;2023-06-22T08:41:43;99484.28;;;25.57;47.17
22018;BME280;11173;51.050;7.108;2023-06-22T08:51:45;99488.22;;;25.85;46.45
22018;BME280;11173;51.050;7.108;2023-06-22T09:01:47;99466.56;;;26.00;45.96
22018;BME280;11173;51.050;7.108;2023-06-22T09:11:48;99444.34;;;26.18;46.03
22018;BME280;11173;51.050;7.108;2023-06-22T09:21:49;99423.00;;;26.68;45.78
22018;BME280;11173;51.050;7.108;2023-06-22T09:31:49;99416.66;;;27.32;44.26
22018;BME280;11173;51.050;7.108;2023-06-22T09:41:49;99399.53;;;27.91;43.17
22018;BME280;11173;51.050;7.108;2023-06-22T09:51:51;99376.88;;;27.93;43.17
22018;BME280;11173;51.050;7.108;2023-06-22T10:01:52;99388.66;;;28.30;43.64
22018;BME280;11173;51.050;7.108;2023-06-22T10:11:52;99382.44;;;29.13;40.63
22018;BME280;11173;51.050;7.108;2023-06-22T10:21:53;99401.63;;;29.40;40.46
22018;BME280;11173;51.050;7.108;2023-06-22T10:31:54;99439.19;;;28.81;40.45
22018;BME280;11173;51.050;7.108;2023-06-22T10:41:54;99457.13;;;28.01;42.40
22018;BME280;11173;51.050;7.108;2023-06-22T10:51:56;99472.31;;;27.31;44.63
22018;BME280;11173;51.050;7.108;2023-06-22T11:01:56;99485.97;;;26.57;45.11
22018;BME280;11173;51.050;7.108;2023-06-22T11:11:57;99502.50;;;25.43;46.11
22018;BME280;11173;51.050;7.108;2023-06-22T11:21:59;99531.94;;;24.23;48.80
22018;BME280;11173;51.050;7.108;2023-06-22T11:31:59;99453.00;;;23.22;49.81
22018;BME280;11173;51.050;7.108;2023-06-22T11:41:59;99415.16;;;22.16;58.93
22018;BME280;11173;51.050;7.108;2023-06-22T11:52:00;99363.16;;;21.50;70.16
22018;BME280;11173;51.050;7.108;2023-06-22T12:02:00;99312.13;;;21.13;68.01
22018;BME280;11173;51.050;7.108;2023-06-22T12:12:01;99343.72;;;20.79;77.09
22018;BME280;11173;51.050;7.108;2023-06-22T12:22:01;99332.88;;;21.36;76.68
22018;BME280;11173;51.050;7.108;2023-06-22T12:32:01;99300.53;;;21.91;72.63
22018;BME280;11173;51.050;7.108;2023-06-22T12:42:02;99302.72;;;22.19;71.45
22018;BME280;11173;51.050;7.108;2023-06-22T12:52:08;99272.09;;;22.40;71.54
22018;BME280;11173;51.050;7.108;2023-06-22T13:02:08;99236.03;;;22.63;70.99
22018;BME280;11173;51.050;7.108;2023-06-22T13:12:09;99238.59;;;22.83;69.51
22018;BME280;11173;51.050;7.108;2023-06-22T13:32:29;99195.16;;;23.39;66.76
22018;BME280;11173;51.050;7.108;2023-06-22T13:42:29;99173.88;;;23.74;64.97
22018;BME280;11173;51.050;7.108;2023-06-22T13:52:30;99144.34;;;23.83;62.61
22018;BME280;11173;51.050;7.108;2023-06-22T14:02:30;99110.06;;;24.06;61.63
22018;BME280;11173;51.050;7.108;2023-06-22T14:12:31;99074.25;;;24.52;61.11
22018;BME280;11173;51.050;7.108;2023-06-22T14:22:31;99080.69;;;24.83;59.82
22018;BME280;11173;51.050;7.108;2023-06-22T14:32:31;99041.59;;;24.83;56.50
22018;BME280;11173;51.050;7.108;2023-06-22T14:42:32;99031.94;;;24.42;57.62
22018;BME280;11173;51.050;7.108;2023-06-22T14:52:32;98999.19;;;24.30;59.67
22018;BME280;11173;51.050;7.108;2023-06-22T15:02:33;99028.38;;;23.70;62.69
22018;BME280;11173;51.050;7.108;2023-06-22T15:12:33;99005.34;;;22.46;68.23
22018;BME280;11173;51.050;7.108;2023-06-22T15:22:33;99036.47;;;21.44;72.99
22018;BME280;11173;51.050;7.108;2023-06-22T15:32:34;99036.22;;;20.39;78.74
22018;BME280;11173;51.050;7.108;2023-06-22T15:42:35;99036.75;;;20.05;80.46
22018;BME280;11173;51.050;7.108;2023-06-22T15:52:35;98942.25;;;19.54;84.55
22018;BME280;11173;51.050;7.108;2023-06-22T16:02:35;98941.59;;;19.39;85.93
22018;BME280;11173;51.050;7.108;2023-06-22T16:12:36;98915.72;;;19.20;86.13
22018;BME280;11173;51.050;7.108;2023-06-22T16:22:36;98907.59;;;19.27;85.70
22018;BME280;11173;51.050;7.108;2023-06-22T16:32:37;98851.22;;;19.13;87.25
22018;BME280;11173;51.050;7.108;2023-06-22T16:42:37;98846.25;;;19.02;89.14
22018;BME280;11173;51.050;7.108;2023-06-22T16:52:38;98829.75;;;19.21;88.76
22018;BME280;11173;51.050;7.108;2023-06-22T17:02:51;98862.53;;;19.39;88.66
22018;BME280;11173;51.050;7.108;2023-06-22T17:12:51;98858.34;;;19.66;87.13
22018;BME280;11173;51.050;7.108;2023-06-22T17:22:52;98878.59;;;19.96;84.95
22018;BME280;11173;51.050;7.108;2023-06-22T17:32:53;98881.59;;;20.19;86.23
22018;BME280;11173;51.050;7.108;2023-06-22T17:43:03;98866.25;;;20.42;85.86
22018;BME280;11173;51.050;7.108;2023-06-22T17:53:10;98863.78;;;20.67;84.59
22018;BME280;11173;51.050;7.108;2023-06-22T18:03:12;98852.19;;;20.76;85.11
22018;BME280;11173;51.050;7.108;2023-06-22T18:13:13;98835.06;;;20.97;84.07
22018;BME280;11173;51.050;7.108;2023-06-22T18:23:16;98817.03;;;21.11;83.77
22018;BME280;11173;51.050;7.108;2023-06-22T18:33:18;98808.53;;;21.17;82.83
22018;BME280;11173;51.050;7.108;2023-06-22T18:43:23;98816.78;;;21.09;82.41
22018;BME280;11173;51.050;7.108;2023-06-22T19:03:31;98812.91;;;20.90;82.48
22018;BME280;11173;51.050;7.108;2023-06-22T19:13:31;98826.72;;;20.76;82.20
22018;BME280;11173;51.050;7.108;2023-06-22T19:23:37;98829.78;;;20.61;82.11
22018;BME280;11173;51.050;7.108;2023-06-22T19:33:38;98842.81;;;20.36;81.76
22018;BME280;11173;51.050;7.108;2023-06-22T19:43:41;98840.16;;;20.16;80.94
22018;BME280;11173;51.050;7.108;2023-06-22T19:53:42;98876.38;;;19.74;76.64
22018;BME280;11173;51.050;7.108;2023-06-22T20:03:43;98893.19;;;18.99;76.41
22018;BME280;11173;51.050;7.108;2023-06-22T20:13:55;98912.03;;;18.26;76.48
22018;BME280;11173;51.050;7.108;2023-06-22T20:24:02;98947.72;;;17.64;78.39
22018;BME280;11173;51.050;7.108;2023-06-22T20:34:03;98998.66;;;17.21;79.52
22018;BME280;11173;51.050;7.108;2023-06-22T20:44:04;98975.41;;;16.97;79.79
22018;BME280;11173;51.050;7.108;2023-06-22T20:54:05;98994.97;;;16.67;80.80
22018;BME280;11173;51.050;7.108;2023-06-22T21:04:06;99027.75;;;16.46;81.85
22018;BME280;11173;51.050;7.108;2023-06-22T21:14:06;99059.91;;;16.45;81.83
22018;BME280;11173;51.050;7.108;2023-06-22T21:24:07;99102.28;;;16.41;81.68
22018;BME280;11173;51.050;7.108;2023-06-22T21:34:07;99153.81;;;16.29;82.14
22018;BME280;11173;51.050;7.108;2023-06-22T21:44:07;99213.78;;;16.17;82.45
22018;BME280;11173;51.050;7.108;2023-06-22T21:54:08;99212.56;;;16.08;82.34
22018;BME280;11173;51.050;7.108;2023-06-22T22:04:08;99214.13;;;16.09;82.36
22018;BME280;11173;51.050;7.108;2023-06-22T22:14:09;99229.88;;;16.07;81.66
22018;BME280;11173;51.050;7.108;2023-06-22T22:24:09;99272.97;;;15.85;82.31
22018;BME280;11173;51.050;7.108;2023-06-22T22:34:10;99271.19;;;15.69;83.01
22018;BME280;11173;51.050;7.108;2023-06-22T22:44:10;99287.09;;;15.73;82.58
22018;BME280;11173;51.050;7.108;2023-06-22T22:54:11;99315.31;;;15.60;82.47
22018;BME280;11173;51.050;7.108;2023-06-22T23:04:11;99356.59;;;15.50;83.38
22018;BME280;11173;51.050;7.108;2023-06-22T23:14:12;99366.88;;;15.44;83.86
22018;BME280;11173;51.050;7.108;2023-06-22T23:24:12;99386.72;;;15.49;83.44
22018;BME280;11173;51.050;7.108;2023-06-22T23:34:15;99422.56;;;15.45;83.52
22018;BME280;11173;51.050;7.108;2023-06-22T23:44:15;99458.91;;;15.49;83.25
22018;BME280;11173;51.050;7.108;2023-06-22T23:54:16;99470.41;;;15.42;82.73
